This is the latest recevied weather packets stored in our database for station/object N0EDB-13. If no packets are shown the sender has not sent any weather packets the latest 10 day(s).
| Time | Temp. | Humidity | Pressure | Rain* | Wind** | Luminosity | Snow |
|---|---|---|---|---|---|---|---|
| 1777655687 | 15° C | 27% | 1495.1 hPa | 0 mm | - | 900 W/m² | - |
| 1777655387 | 14.44° C | 28% | 1496.5 hPa | 0 mm | - | 896 W/m² | - |
| 1777655086 | 14.44° C | 28% | 1497.8 hPa | 0 mm | - | 891 W/m² | - |
| 1777654786 | 13.89° C | 31% | 1498.4 hPa | 0 mm | - | 881 W/m² | - |
| 1777654485 | 13.89° C | 30% | 1498.1 hPa | 0 mm | - | 865 W/m² | - |
| 1777654184 | 13.89° C | 31% | 1498.5 hPa | 0 mm | - | 851 W/m² | - |
| 1777653883 | 13.33° C | 33% | 1499.4 hPa | 0 mm | - | 848 W/m² | - |
| 1777653582 | 13.33° C | 34% | 1500.4 hPa | 0 mm | - | 826 W/m² | - |
| 1777653282 | 13.33° C | 33% | 1499.8 hPa | 0 mm | - | 814 W/m² | - |
| 1777652982 | 13.89° C | 33% | 1499.5 hPa | 0 mm | - | 797 W/m² | - |
| 1777652681 | 13.33° C | 34% | 1501 hPa | 0 mm | - | 786 W/m² | - |
| 1777652380 | 12.78° C | 36% | 1502.6 hPa | 0 mm | - | 766 W/m² | - |
| 1777652080 | 12.22° C | 37% | 1503.2 hPa | 0 mm | - | 760 W/m² | - |
| 1777651779 | 12.22° C | 38% | 1504.3 hPa | 0 mm | - | 741 W/m² | - |
| 1777651478 | 11.67° C | 38% | 1504.9 hPa | 0 mm | - | 731 W/m² | - |
| 1777651178 | 11.67° C | 40% | 1505.2 hPa | 0 mm | - | 714 W/m² | - |
| 1777650877 | 11.67° C | 43% | 1505.7 hPa | 0 mm | - | 698 W/m² | - |
| 1777650577 | 11.11° C | 40% | 1506.1 hPa | 0 mm | - | 683 W/m² | - |
| 1777650277 | 11.11° C | 40% | 1506.5 hPa | 0 mm | - | 667 W/m² | - |
| 1777649976 | 11.11° C | 43% | 1507.1 hPa | 0 mm | - | 651 W/m² | - |
| 1777649676 | 10.56° C | 43% | 1508 hPa | 0 mm | - | 635 W/m² | - |
| 1777649375 | 10° C | 47% | 1509.7 hPa | 0 mm | - | 620 W/m² | - |
| 1777649075 | 9.44° C | 48% | 1511 hPa | 0 mm | - | 604 W/m² | - |
| 1777648775 | 9.44° C | 50% | 1511.9 hPa | 0 mm | - | 586 W/m² | - |
| 1777648474 | 8.89° C | 49% | 1512.6 hPa | 0 mm | - | 69 W/m² | - |
* Rain latest hour (hover to see other rain measurements)
** Current wind speed in m/s (hover to see current wind gust speed)